Time;durP1;ratioP1;P1;durP2;ratioP2;P2;SDS_P1;SDS_P2;PMS_P1;PMS_P2;Temp;Humidity;BMP_temperature;BMP_pressure;BME280_temperature;BME280_humidity;BME280_pressure;Samples;Min_cycle;Max_cycle;Signal;HPM_P1;HPM_P2
2021/03/05 00:00:41;;;;;;;37.70;21.80;;;;;;;4.92;61.46;98787.92;1713436;83;21139;-39
2021/03/05 00:03:10;;;;;;;39.35;21.35;;;;;;;4.91;61.33;98787.70;1749940;82;22049;-39
2021/03/05 00:05:40;;;;;;;40.23;21.12;;;;;;;4.92;61.41;98790.61;1774219;80;21542;-39
2021/03/05 00:08:08;;;;;;;34.38;19.20;;;;;;;4.91;61.41;98789.83;1794481;79;21163;-39
2021/03/05 00:10:39;;;;;;;36.95;19.10;;;;;;;4.90;61.09;98791.50;1767434;81;21126;-39
2021/03/05 00:13:08;;;;;;;34.85;19.77;;;;;;;4.84;60.75;98788.27;1768527;81;21560;-39
2021/03/05 00:15:43;;;;;;;32.65;17.62;;;;;;;4.77;60.84;98792.84;1737868;81;21208;-39
2021/03/05 00:18:12;;;;;;;32.42;17.25;;;;;;;4.70;60.63;98793.16;1735954;81;21680;-39
2021/03/05 00:20:44;;;;;;;34.20;18.27;;;;;;;4.64;60.75;98795.30;1737986;81;21151;-39
2021/03/05 00:23:12;;;;;;;33.08;17.67;;;;;;;4.58;60.80;98793.94;1766536;81;21180;-39
2021/03/05 00:25:41;;;;;;;31.48;17.37;;;;;;;4.53;60.83;98791.47;1761008;79;21166;-39
2021/03/05 00:28:09;;;;;;;35.70;17.52;;;;;;;4.49;60.77;98791.91;1763868;80;22267;-39
2021/03/05 00:30:37;;;;;;;34.20;17.35;;;;;;;4.45;60.99;98789.67;1740171;81;21127;-39
2021/03/05 00:33:08;;;;;;;34.58;18.87;;;;;;;4.43;60.98;98788.42;1759038;79;21608;-39
2021/03/05 00:35:38;;;;;;;36.88;18.27;;;;;;;4.41;61.19;98792.77;1735230;82;21601;-39
2021/03/05 00:38:06;;;;;;;36.73;18.00;;;;;;;4.38;61.26;98786.73;1744178;81;21144;-39
2021/03/05 00:40:35;;;;;;;33.00;17.87;;;;;;;4.34;61.49;98787.18;1762236;81;21267;-39
2021/03/05 00:43:04;;;;;;;32.23;16.87;;;;;;;4.31;61.78;98783.25;1766584;81;21156;-39
2021/03/05 00:45:32;;;;;;;39.23;19.17;;;;;;;4.32;61.70;98779.45;1744186;81;21142;-39
2021/03/05 00:48:01;;;;;;;34.23;17.70;;;;;;;4.32;61.75;98778.11;1737769;82;21152;-39
2021/03/05 00:50:31;;;;;;;37.35;19.02;;;;;;;4.32;61.69;98785.38;1737814;82;21159;-39
2021/03/05 00:53:01;;;;;;;34.90;19.12;;;;;;;4.30;61.74;98785.73;1706971;82;21261;-39
2021/03/05 00:55:29;;;;;;;34.83;18.23;;;;;;;4.30;61.74;98781.70;1736554;82;21188;-39
2021/03/05 00:58:00;;;;;;;31.05;17.07;;;;;;;4.26;61.81;98776.75;1736596;82;21198;-39
2021/03/05 01:00:29;;;;;;;30.85;17.95;;;;;;;4.25;61.78;98779.23;1730078;81;21177;-39
2021/03/05 01:02:57;;;;;;;35.38;18.02;;;;;;;4.30;61.80;98778.23;1738354;81;21194;-39
2021/03/05 01:05:26;;;;;;;35.00;18.07;;;;;;;4.36;61.70;98779.01;1772682;80;21201;-39
2021/03/05 01:07:57;;;;;;;35.05;19.52;;;;;;;4.37;61.67;98770.41;1757755;81;21615;-39
2021/03/05 01:10:27;;;;;;;35.63;18.65;;;;;;;4.38;61.70;98771.98;1732960;81;21172;-39
2021/03/05 01:12:57;;;;;;;33.50;17.80;;;;;;;4.41;61.65;98779.91;1727594;83;21209;-39
2021/03/05 01:15:25;;;;;;;37.48;18.27;;;;;;;4.37;61.79;98785.95;1725577;81;21570;-39
2021/03/05 01:17:54;;;;;;;34.83;17.75;;;;;;;4.33;61.85;98781.58;1755146;81;22275;-39
2021/03/05 01:20:25;;;;;;;35.73;18.62;;;;;;;4.27;61.99;98781.00;1741810;81;21142;-39
2021/03/05 01:22:54;;;;;;;33.95;18.32;;;;;;;4.22;62.34;98792.50;1737623;81;21614;-39
2021/03/05 01:25:27;;;;;;;34.73;18.55;;;;;;;4.14;62.47;98791.48;1750580;81;21174;-39
2021/03/05 01:27:56;;;;;;;32.08;17.30;;;;;;;4.06;62.59;98792.91;1763791;81;21619;-39
2021/03/05 01:30:25;;;;;;;35.40;18.50;;;;;;;4.03;62.94;98793.55;1727742;80;21297;-39
2021/03/05 01:32:53;;;;;;;34.80;18.62;;;;;;;3.99;62.94;98788.63;1737945;82;21190;-39
2021/03/05 01:35:25;;;;;;;35.00;18.73;;;;;;;3.94;63.11;98791.74;1760295;81;21604;-39
2021/03/05 01:37:53;;;;;;;33.98;19.02;;;;;;;3.91;63.30;98793.75;1768293;81;21165;-39
2021/03/05 01:40:32;;;;;;;35.98;18.30;;;;;;;3.84;63.36;98793.48;1738213;81;21107;-39
2021/03/05 01:43:01;;;;;;;32.78;17.60;;;;;;;3.82;63.40;98797.06;1735550;82;21203;-39
2021/03/05 01:45:30;;;;;;;33.58;18.40;;;;;;;3.89;63.50;98797.30;1734899;82;21128;-39
2021/03/05 01:48:05;;;;;;;34.15;18.90;;;;;;;3.98;63.35;98800.45;1737196;81;21162;-39
2021/03/05 01:50:38;;;;;;;34.60;18.65;;;;;;;4.00;63.27;98803.61;1764538;81;21193;-39
2021/03/05 01:53:07;;;;;;;29.80;15.78;;;;;;;4.02;63.16;98804.08;1768345;81;21148;-39
2021/03/05 01:55:35;;;;;;;38.90;19.23;;;;;;;4.01;63.17;98806.52;1743095;81;21272;-39
2021/03/05 01:58:04;;;;;;;36.13;18.45;;;;;;;3.94;63.35;98807.83;1747789;81;21620;-39
2021/03/05 02:00:46;;;;;;;34.70;17.37;;;;;;;3.93;63.40;98806.25;1755202;81;21141;-39
2021/03/05 02:03:14;;;;;;;33.88;17.48;;;;;;;3.93;63.33;98808.94;1737755;82;21652;-39
2021/03/05 02:05:42;;;;;;;40.52;20.02;;;;;;;3.89;63.54;98806.69;1762348;81;21834;-39
2021/03/05 02:08:12;;;;;;;35.23;17.92;;;;;;;3.85;63.64;98813.04;1732179;80;21450;-39
2021/03/05 02:10:40;;;;;;;37.10;20.25;;;;;;;3.86;63.78;98814.61;1752984;80;21045;-39
2021/03/05 02:13:09;;;;;;;37.45;20.27;;;;;;;3.88;63.84;98817.18;1813595;79;21127;-39
2021/03/05 02:15:39;;;;;;;38.88;20.32;;;;;;;3.94;63.89;98815.88;1719099;82;21414;-39
2021/03/05 02:20:26;;;;;;;41.50;21.07;;;;;;;4.02;63.87;98813.47;1838292;76;22482;-38
2021/03/05 02:23:53;;;;;;;33.80;17.87;;;;;;;3.89;64.09;98823.33;1816679;79;21031;-38
2021/03/05 02:26:53;;;;;;;41.05;21.05;;;;;;;3.88;64.07;98817.18;1815758;79;21272;-38
2021/03/05 02:29:35;;;;;;;41.30;19.55;;;;;;;3.80;64.21;98823.41;1814199;79;21011;-38
2021/03/05 02:32:11;;;;;;;40.98;21.50;;;;;;;3.75;64.44;98831.64;1788346;79;21035;-38
2021/03/05 02:34:42;;;;;;;41.65;20.72;;;;;;;3.68;64.59;98829.27;1738628;79;21561;-38
2021/03/05 02:37:12;;;;;;;39.13;20.62;;;;;;;3.68;64.67;98835.97;1813415;79;21193;-38
2021/03/05 02:39:51;;;;;;;35.38;19.12;;;;;;;3.74;64.68;98834.09;1799015;79;21355;-38
2021/03/05 02:42:47;;;;;;;37.73;20.17;;;;;;;3.77;64.69;98840.16;1810524;78;20984;-38
2021/03/05 02:45:26;;;;;;;42.15;20.70;;;;;;;3.72;64.71;98840.36;1767154;80;21603;-38
2021/03/05 02:48:11;;;;;;;37.67;20.05;;;;;;;3.61;64.94;98838.38;1782877;79;21636;-38
2021/03/05 02:50:42;;;;;;;34.78;18.73;;;;;;;3.51;65.17;98836.86;1816685;79;21170;-38
2021/03/05 02:53:12;;;;;;;;;;;;;;;3.45;65.35;98841.63;1818241;78;21209;-39
2021/03/05 02:55:41;;;;;;;38.42;18.85;;;;;;;3.41;65.48;98845.27;1815635;79;20279;-38
2021/03/05 02:58:09;;;;;;;37.65;19.57;;;;;;;3.30;65.85;98845.41;1807826;79;21182;-38
2021/03/05 03:00:37;;;;;;;42.70;21.30;;;;;;;3.34;65.85;98849.03;1792715;79;21138;-38
2021/03/05 03:03:07;;;;;;;42.83;21.47;;;;;;;3.43;65.70;98845.75;1816846;79;21090;-38
2021/03/05 03:05:35;;;;;;;39.03;20.90;;;;;;;3.45;65.77;98850.21;1795578;78;21561;-38
2021/03/05 03:08:06;;;;;;;37.28;20.15;;;;;;;3.50;65.67;98852.70;1791147;79;21142;-38
2021/03/05 03:10:34;;;;;;;;;;;;;;;3.56;65.51;98856.77;1819393;79;21000;-39
2021/03/05 03:13:03;;;;;;;45.45;21.50;;;;;;;3.56;65.43;98853.30;1813605;78;20318;-38
2021/03/05 03:15:33;;;;;;;41.45;21.60;;;;;;;3.43;65.66;98855.13;1814133;79;21217;-38
2021/03/05 03:18:05;;;;;;;43.17;22.32;;;;;;;3.43;65.74;98861.83;1811692;78;21193;-39
2021/03/05 03:20:33;;;;;;;39.67;20.60;;;;;;;3.44;65.90;98861.48;1787490;78;20994;-39
2021/03/05 03:23:02;;;;;;;40.15;21.65;;;;;;;3.51;65.78;98863.66;1787265;78;21723;-38
2021/03/05 03:25:31;;;;;;;38.30;21.65;;;;;;;3.60;65.54;98868.41;1726722;80;21179;-38
2021/03/05 03:28:00;;;;;;;45.63;22.82;;;;;;;3.58;65.62;98859.92;1769462;81;21185;-38
2021/03/05 03:30:28;;;;;;;43.13;22.13;;;;;;;3.56;65.66;98870.17;1780126;80;21350;-38
2021/03/05 03:32:57;;;;;;;39.88;22.15;;;;;;;3.57;65.65;98871.75;1783111;80;21156;-38
2021/03/05 03:35:25;;;;;;;41.18;21.37;;;;;;;3.55;65.68;98872.61;1772336;80;21185;-38
2021/03/05 03:37:56;;;;;;;42.08;21.40;;;;;;;3.56;65.71;98874.19;1748358;79;21062;-38
2021/03/05 03:40:25;;;;;;;40.75;20.65;;;;;;;3.57;65.68;98875.77;1740550;80;21631;-38
2021/03/05 03:42:54;;;;;;;39.85;21.05;;;;;;;3.56;65.66;98884.91;1772746;80;21376;-38
2021/03/05 03:45:23;;;;;;;39.42;20.92;;;;;;;3.53;65.77;98884.78;1747755;80;21188;-38
2021/03/05 03:47:52;;;;;;;40.60;22.62;;;;;;;3.57;65.83;98882.47;1742667;80;21582;-38
2021/03/05 03:50:32;;;;;;;46.70;22.77;;;;;;;3.63;65.84;98885.17;1742887;80;21583;-38
2021/03/05 03:53:14;;;;;;;41.13;21.93;;;;;;;3.68;65.86;98889.00;1742138;82;21197;-39
2021/03/05 03:55:44;;;;;;;41.25;22.00;;;;;;;3.74;65.80;98885.03;1742599;80;21398;-38
2021/03/05 03:58:14;;;;;;;41.88;21.87;;;;;;;3.79;65.79;98879.48;1744150;80;21189;-39
2021/03/05 04:00:44;;;;;;;;;;;;;;;3.81;65.63;98883.97;1718394;80;21173;-38
2021/03/05 04:03:12;;;;;;;41.30;20.60;;;;;;;3.82;65.49;98884.76;1785360;77;20590;-38
2021/03/05 04:05:43;;;;;;;44.55;21.90;;;;;;;3.72;65.74;98892.62;1774271;77;21145;-38
2021/03/05 04:08:13;;;;;;;44.40;20.65;;;;;;;3.73;65.79;98892.83;1777096;80;21279;-38
2021/03/05 04:10:41;;;;;;;39.92;20.27;;;;;;;3.75;65.83;98891.97;1764578;80;21628;-38
2021/03/05 04:13:10;;;;;;;38.35;20.20;;;;;;;3.79;65.77;98894.22;1730838;82;21641;-38
2021/03/05 04:15:39;;;;;;;39.03;20.45;;;;;;;3.83;65.75;98892.45;1742781;80;21599;-38
2021/03/05 04:18:07;;;;;;;41.45;21.00;;;;;;;3.85;65.59;98890.25;1761584;80;21567;-38
2021/03/05 04:20:38;;;;;;;38.17;20.60;;;;;;;3.94;65.61;98890.17;1779665;80;22278;-38
2021/03/05 04:23:06;;;;;;;39.70;21.25;;;;;;;4.04;65.50;98893.02;1760619;81;21218;-39
2021/03/05 04:25:36;;;;;;;46.43;21.97;;;;;;;4.09;65.48;98895.52;1747898;80;21173;-39
2021/03/05 04:28:05;;;;;;;40.70;20.92;;;;;;;4.09;65.66;98897.64;1738509;81;21455;-38
2021/03/05 04:30:33;;;;;;;40.23;21.42;;;;;;;4.13;65.64;98891.05;1731223;82;21467;-38
2021/03/05 04:33:04;;;;;;;39.48;20.20;;;;;;;4.14;65.70;98893.97;1785376;79;22080;-38
2021/03/05 04:35:32;;;;;;;38.53;20.48;;;;;;;4.13;65.60;98891.05;1815981;78;21182;-39
2021/03/05 04:38:00;;;;;;;38.17;19.95;;;;;;;4.12;65.80;98888.92;1814227;79;21114;-38
2021/03/05 04:40:29;;;;;;;40.73;20.62;;;;;;;4.10;65.87;98894.41;1815861;79;21106;-38
2021/03/05 04:42:57;;;;;;;36.08;19.95;;;;;;;4.04;66.04;98899.17;1815913;79;21150;-38
2021/03/05 04:45:25;;;;;;;38.75;19.48;;;;;;;4.04;66.20;98898.39;1811543;79;21179;-38
2021/03/05 04:47:53;;;;;;;40.25;19.32;;;;;;;4.10;66.16;98902.45;1783615;80;20992;-38
2021/03/05 04:50:22;;;;;;;35.68;19.82;;;;;;;4.12;66.23;98902.34;1791726;79;21565;-38
2021/03/05 04:52:50;;;;;;;36.17;18.60;;;;;;;4.17;66.32;98907.51;1812751;77;21138;-38
2021/03/05 04:55:19;;;;;;;32.55;17.92;;;;;;;4.22;66.28;98905.97;1792037;79;21585;-39
2021/03/05 04:57:47;;;;;;;37.28;19.30;;;;;;;4.28;66.15;98907.90;1803106;79;21157;-38
2021/03/05 05:00:16;;;;;;;35.73;17.98;;;;;;;4.32;66.07;98906.91;1783741;80;20983;-38
2021/03/05 05:02:44;;;;;;;29.18;15.55;;;;;;;4.35;65.99;98914.33;1802212;79;21126;-38
2021/03/05 05:05:14;;;;;;;34.03;17.35;;;;;;;4.36;65.90;98912.40;1786772;79;21122;-38
2021/03/05 05:07:43;;;;;;;34.67;18.23;;;;;;;4.34;65.91;98912.75;1783998;80;21158;-38
2021/03/05 05:10:12;;;;;;;31.55;17.20;;;;;;;4.34;65.91;98914.09;1792595;77;21196;-38
2021/03/05 05:12:41;;;;;;;38.88;18.30;;;;;;;4.33;65.83;98913.86;1787763;79;21177;-38
2021/03/05 05:15:10;;;;;;;37.58;18.52;;;;;;;4.32;65.73;98923.02;1783669;80;21130;-38
2021/03/05 05:17:38;;;;;;;32.38;18.62;;;;;;;4.29;65.97;98923.69;1783938;80;21178;-39
2021/03/05 05:20:09;;;;;;;29.37;17.25;;;;;;;4.35;65.87;98932.33;1779687;79;21581;-38
2021/03/05 05:22:38;;;;;;;32.93;18.55;;;;;;;4.44;65.60;98928.22;1783621;80;22106;-38
2021/03/05 05:25:09;;;;;;;36.17;18.20;;;;;;;4.52;65.53;98925.45;1783625;80;21613;-38
2021/03/05 05:27:37;;;;;;;30.70;18.12;;;;;;;4.56;65.43;98927.70;1783742;80;21106;-39
2021/03/05 05:30:08;;;;;;;35.98;18.25;;;;;;;4.59;65.34;98926.27;1789642;79;21170;-38
2021/03/05 05:32:36;;;;;;;;;;;;;;;4.61;65.16;98930.17;1786398;80;21154;-38
2021/03/05 05:35:07;;;;;;;34.58;16.48;;;;;;;4.61;65.08;98932.86;1796174;77;21240;-38
2021/03/05 05:37:35;;;;;;;36.70;18.12;;;;;;;4.54;65.29;98937.20;1790451;79;21142;-39
2021/03/05 05:40:04;;;;;;;34.13;18.45;;;;;;;4.58;65.22;98940.25;1791680;79;21586;-38
2021/03/05 05:42:33;;;;;;;33.18;17.48;;;;;;;4.59;65.09;98937.80;1807071;79;21773;-38
2021/03/05 05:45:03;;;;;;;31.57;16.40;;;;;;;4.61;65.08;98936.11;1795966;79;21119;-38
2021/03/05 05:47:37;;;;;;;34.27;17.65;;;;;;;4.59;65.09;98933.77;1786972;77;21518;-38
2021/03/05 05:50:08;;;;;;;37.53;18.17;;;;;;;4.59;65.04;98936.45;1802619;77;21114;-38
2021/03/05 05:52:36;;;;;;;37.50;17.73;;;;;;;4.59;65.02;98937.80;1789834;77;21158;-38
2021/03/05 05:55:06;;;;;;;32.55;18.70;;;;;;;4.54;65.02;98943.36;1789665;77;21154;-38
2021/03/05 05:57:38;;;;;;;34.65;17.07;;;;;;;4.47;64.99;98936.39;1806546;79;21142;-39
2021/03/05 06:00:10;;;;;;;38.28;17.75;;;;;;;4.60;64.92;98949.33;1786439;77;20972;-38
2021/03/05 06:02:42;;;;;;;35.15;19.05;;;;;;;4.64;64.87;98945.65;1795167;79;21154;-38
2021/03/05 06:05:14;;;;;;;32.73;19.05;;;;;;;4.67;64.91;98954.92;1798134;77;21853;-38
2021/03/05 06:07:44;;;;;;;33.23;17.90;;;;;;;4.71;64.78;98954.49;1806746;79;21158;-38
2021/03/05 06:10:13;;;;;;;35.78;18.80;;;;;;;4.72;64.76;98955.52;1812810;79;21174;-38
2021/03/05 06:12:43;;;;;;;36.15;18.30;;;;;;;4.77;64.71;98959.34;1795913;77;21274;-38
2021/03/05 06:15:14;;;;;;;34.73;18.65;;;;;;;4.80;64.54;98969.41;1773973;77;21225;-38
2021/03/05 06:17:48;;;;;;;35.03;19.00;;;;;;;4.82;64.55;98969.09;1805241;77;21129;-39
2021/03/05 06:20:17;;;;;;;37.25;18.30;;;;;;;4.80;64.54;98972.09;1796471;77;22253;-38
2021/03/05 06:22:46;;;;;;;36.53;18.87;;;;;;;4.80;64.52;98968.62;1787329;78;21428;-38
2021/03/05 06:25:35;;;;;;;34.10;18.20;;;;;;;4.80;64.41;98969.96;1752090;80;21265;-38
2021/03/05 06:28:17;;;;;;;35.80;19.20;;;;;;;4.76;64.26;98973.08;1783489;80;21147;-39
2021/03/05 06:30:45;;;;;;;35.55;18.30;;;;;;;4.68;64.29;98973.41;1785743;79;21561;-38
2021/03/05 06:33:28;;;;;;;31.90;17.55;;;;;;;4.63;64.23;98976.28;1787738;78;21166;-38
2021/03/05 06:36:19;;;;;;;31.37;16.90;;;;;;;4.57;64.26;98972.23;1797245;77;21130;-39
2021/03/05 06:38:47;;;;;;;;;;;;;;;4.58;64.17;98976.48;1786228;80;21193;-39
2021/03/05 06:41:29;;;;;;;36.85;18.85;;;;;;;4.65;64.06;98978.63;1803493;79;20214;-38
2021/03/05 06:44:04;;;;;;;36.60;18.05;;;;;;;4.60;64.07;98982.30;1788477;77;21586;-38
2021/03/05 06:46:39;;;;;;;37.48;18.95;;;;;;;4.64;64.00;98976.52;1783511;80;21154;-38
2021/03/05 06:49:13;;;;;;;33.80;16.75;;;;;;;4.69;63.82;98973.64;1812019;79;21146;-39
2021/03/05 06:51:42;;;;;;;35.55;17.07;;;;;;;4.71;63.65;98974.63;1783840;79;22446;-38
2021/03/05 06:54:14;;;;;;;35.10;16.32;;;;;;;4.72;63.48;98978.34;1760820;80;21166;-38
2021/03/05 06:56:48;;;;;;;30.15;15.95;;;;;;;4.76;63.25;98981.14;1808148;79;21048;-38
2021/03/05 06:59:19;;;;;;;33.00;16.35;;;;;;;4.74;62.94;98980.12;1815474;79;21572;-38
2021/03/05 07:01:58;;;;;;;36.68;17.82;;;;;;;4.68;63.10;98975.30;1815924;78;21102;-38
2021/03/05 07:04:30;;;;;;;31.20;15.95;;;;;;;4.68;63.12;98978.77;1816161;79;22158;-38
2021/03/05 07:07:09;;;;;;;31.68;15.63;;;;;;;4.68;62.81;98980.11;1810900;79;21145;-38
2021/03/05 07:09:51;;;;;;;29.67;14.78;;;;;;;4.71;62.94;98973.29;1786367;77;21162;-38
2021/03/05 07:12:26;;;;;;;32.65;15.15;;;;;;;4.74;62.65;98979.36;1784070;80;21577;-38
2021/03/05 07:15:09;;;;;;;28.85;15.45;;;;;;;4.75;62.38;98989.75;1815363;79;21145;-39
2021/03/05 07:17:37;;;;;;;33.05;15.75;;;;;;;4.76;61.99;98980.59;1796555;79;21352;-38
2021/03/05 07:20:08;;;;;;;28.83;15.10;;;;;;;4.71;62.18;98984.03;1794053;77;21122;-38
2021/03/05 07:22:36;;;;;;;27.58;14.20;;;;;;;4.74;62.48;98976.09;1796664;79;21557;-38
2021/03/05 07:25:08;;;;;;;28.55;14.10;;;;;;;4.78;61.91;98974.89;1797608;79;21118;-38
2021/03/05 07:27:38;;;;;;;27.90;14.20;;;;;;;4.83;61.55;98976.59;1801217;79;21190;-38
2021/03/05 07:30:14;;;;;;;23.77;13.05;;;;;;;4.83;61.58;98984.64;1801887;79;21300;-39
2021/03/05 07:32:48;;;;;;;25.05;13.80;;;;;;;4.78;61.50;98983.73;1807609;79;21024;-38
2021/03/05 07:35:31;;;;;;;23.45;13.55;;;;;;;4.77;61.35;98988.88;1787149;79;21575;-38
2021/03/05 07:38:01;;;;;;;22.35;11.97;;;;;;;4.79;61.39;98992.58;1796677;79;21087;-38
2021/03/05 07:40:29;;;;;;;26.15;13.88;;;;;;;4.80;60.93;98996.27;1796424;79;21146;-39
2021/03/05 07:42:59;;;;;;;25.02;12.47;;;;;;;4.78;60.91;98993.14;1783960;79;21240;-38
2021/03/05 07:45:28;;;;;;;22.37;12.93;;;;;;;4.79;60.67;98999.30;1791365;79;21075;-39
2021/03/05 07:47:57;;;;;;;26.25;13.32;;;;;;;4.80;60.60;98986.86;1779134;80;21130;-38
2021/03/05 07:50:26;;;;;;;25.20;13.22;;;;;;;4.78;60.37;98983.73;1779133;79;21183;-38
2021/03/05 07:52:59;;;;;;;23.47;12.47;;;;;;;4.77;60.26;98986.75;1806310;79;21127;-38
2021/03/05 07:55:46;;;;;;;23.52;12.47;;;;;;;4.76;60.32;98979.24;1807944;79;22242;-39
2021/03/05 07:58:42;;;;;;;21.37;13.13;;;;;;;4.77;60.29;98988.09;1779170;80;21170;-38
2021/03/05 08:01:18;;;;;;;27.73;13.43;;;;;;;4.83;60.35;98988.13;1835867;78;23335;-39
2021/03/05 08:03:54;;;;;;;22.37;12.05;;;;;;;4.82;60.17;98989.23;1736735;79;21715;-38
2021/03/05 08:06:30;;;;;;;22.48;13.40;;;;;;;4.81;60.02;98991.68;1795740;79;21184;-39
2021/03/05 08:09:15;;;;;;;24.05;13.10;;;;;;;4.75;59.95;98990.30;1796816;79;20972;-38
2021/03/05 08:11:43;;;;;;;24.87;13.30;;;;;;;4.68;59.96;98986.83;1790596;79;21043;-38
2021/03/05 08:14:26;;;;;;;25.00;13.68;;;;;;;4.62;60.29;98981.98;1785814;79;21739;-38
2021/03/05 08:16:54;;;;;;;26.95;15.10;;;;;;;4.65;60.57;98984.78;1778403;79;21048;-39
2021/03/05 08:19:37;;;;;;;24.23;13.18;;;;;;;4.69;60.38;98988.41;1731471;81;22259;-38
2021/03/05 08:22:05;;;;;;;25.10;12.80;;;;;;;4.67;60.24;98996.55;1712050;82;20957;-38
2021/03/05 08:24:39;;;;;;;24.55;12.70;;;;;;;4.61;60.39;98995.95;1742348;82;20996;-38
2021/03/05 08:27:14;;;;;;;25.95;12.70;;;;;;;4.62;60.00;98996.74;1748306;80;21691;-38
2021/03/05 08:30:06;;;;;;;23.20;12.20;;;;;;;4.63;60.31;98996.42;1737353;82;21613;-39
2021/03/05 08:32:49;;;;;;;20.75;10.55;;;;;;;4.69;59.32;99003.17;1711640;82;21662;-38
2021/03/05 08:35:36;;;;;;;19.82;10.48;;;;;;;4.70;59.64;98991.84;1715597;82;21159;-38
2021/03/05 08:38:09;;;;;;;24.53;11.43;;;;;;;4.78;59.42;98989.11;1713851;83;21151;-38
2021/03/05 08:40:46;;;;;;;23.92;11.68;;;;;;;4.93;59.44;98997.67;1713574;82;21158;-39
2021/03/05 08:43:20;;;;;;;22.32;11.53;;;;;;;5.06;59.46;98991.20;1739443;82;21396;-39
2021/03/05 08:46:00;;;;;;;18.62;10.53;;;;;;;5.21;58.93;98987.89;1719580;82;21454;-39
2021/03/05 08:48:36;;;;;;;21.37;11.60;;;;;;;5.35;58.33;98998.33;1718702;82;21138;-38
2021/03/05 08:51:18;;;;;;;18.07;10.90;;;;;;;5.51;58.05;98993.33;1708278;83;21115;-38
2021/03/05 08:53:48;;;;;;;18.90;11.57;;;;;;;5.65;56.95;98996.48;1713566;83;21194;-39
2021/03/05 08:56:22;;;;;;;22.05;11.70;;;;;;;5.74;57.04;98995.02;1713550;83;21589;-38
2021/03/05 08:59:05;;;;;;;21.35;11.70;;;;;;;5.85;56.65;99000.19;1718596;82;21446;-38
2021/03/05 09:01:37;;;;;;;20.65;11.70;;;;;;;5.96;56.72;99007.25;1712196;83;21563;-39
2021/03/05 09:04:14;;;;;;;18.75;10.85;;;;;;;6.04;56.50;99005.81;1718788;82;21593;-38
2021/03/05 09:06:53;;;;;;;19.25;10.58;;;;;;;6.10;56.17;99005.00;1716867;83;21640;-39
2021/03/05 09:09:23;;;;;;;21.12;11.80;;;;;;;6.16;55.91;99002.30;1721381;82;21170;-39
2021/03/05 09:12:11;;;;;;;19.80;11.60;;;;;;;6.15;55.32;99009.39;1740382;82;21206;-38
2021/03/05 09:14:44;;;;;;;21.23;11.65;;;;;;;6.07;55.12;99009.16;1719336;82;21162;-38
2021/03/05 09:17:13;;;;;;;19.50;11.95;;;;;;;5.94;54.65;99004.13;1728528;82;21147;-39
2021/03/05 09:19:46;;;;;;;19.12;11.18;;;;;;;5.79;55.34;99011.49;1736575;82;21166;-38
2021/03/05 09:22:24;;;;;;;19.30;10.88;;;;;;;5.76;55.65;99020.24;1727168;82;21358;-39
2021/03/05 09:25:01;;;;;;;17.60;10.50;;;;;;;5.79;55.83;99020.91;1729105;82;22287;-38
2021/03/05 09:27:34;;;;;;;19.52;10.70;;;;;;;5.85;55.83;99028.98;1732188;82;20999;-38
2021/03/05 09:30:21;;;;;;;20.10;11.05;;;;;;;5.83;55.31;99033.91;1726725;82;21186;-39
2021/03/05 09:32:55;;;;;;;14.78;9.08;;;;;;;5.82;55.67;99043.09;1731351;82;21118;-39
2021/03/05 09:35:29;;;;;;;16.95;10.18;;;;;;;5.87;55.71;99044.24;1722958;82;21135;-40
2021/03/05 09:37:58;;;;;;;15.70;8.65;;;;;;;5.89;54.69;99039.33;1723970;82;21218;-40
2021/03/05 09:40:28;;;;;;;16.13;9.37;;;;;;;5.86;54.45;99048.02;1744056;82;21417;-39
2021/03/05 09:42:59;;;;;;;19.07;10.30;;;;;;;5.91;54.88;99043.80;1740380;82;21138;-40
2021/03/05 09:45:53;;;;;;;17.57;9.25;;;;;;;6.03;55.34;99049.19;1746231;82;21174;-40
2021/03/05 09:48:33;;;;;;;17.35;9.60;;;;;;;6.14;55.15;99051.66;1730460;82;21155;-39
2021/03/05 09:51:08;;;;;;;17.62;9.13;;;;;;;6.19;54.38;99051.44;1717408;81;21376;-39
2021/03/05 09:53:38;;;;;;;17.30;9.50;;;;;;;6.18;54.04;99045.83;1716470;82;21146;-39
2021/03/05 09:56:07;;;;;;;16.02;8.80;;;;;;;6.20;54.88;99050.30;1721174;82;21593;-40
2021/03/05 09:58:36;;;;;;;15.08;8.85;;;;;;;6.27;54.35;99050.53;1730049;82;21130;-39
2021/03/05 10:01:05;;;;;;;18.20;9.68;;;;;;;6.30;53.91;99055.23;1712915;82;21614;-39
2021/03/05 10:03:35;;;;;;;14.23;8.85;;;;;;;6.28;53.67;99060.18;1772500;79;21416;-39
2021/03/05 10:06:04;;;;;;;12.10;7.60;;;;;;;6.17;53.16;99064.44;1786196;79;21171;-39
2021/03/05 10:08:32;;;;;;;10.75;6.58;;;;;;;6.01;53.91;99066.22;1796431;79;21016;-39
2021/03/05 10:11:07;;;;;;;12.15;6.87;;;;;;;5.96;54.74;99067.79;1794081;79;21012;-39
2021/03/05 10:13:52;;;;;;;10.15;6.53;;;;;;;5.95;55.33;99064.34;1779935;79;21602;-40
2021/03/05 10:16:29;;;;;;;9.68;5.72;;;;;;;5.94;55.45;99066.80;1783333;78;21593;-40
2021/03/05 10:19:08;;;;;;;10.72;6.35;;;;;;;5.98;53.75;99061.52;1773876;79;21481;-39
2021/03/05 10:21:47;;;;;;;14.63;8.03;;;;;;;6.04;53.86;99052.91;1770883;79;21048;-40
2021/03/05 10:24:19;;;;;;;17.62;9.13;;;;;;;6.17;55.03;99056.92;1762145;79;21115;-40
2021/03/05 10:27:21;;;;;;;14.55;9.05;;;;;;;6.23;56.17;99060.41;1785281;79;21108;-39
2021/03/05 10:29:56;;;;;;;13.70;8.18;;;;;;;6.20;56.50;99062.41;1786576;79;21163;-39
2021/03/05 10:32:37;;;;;;;12.88;6.90;;;;;;;6.08;55.89;99067.81;1793785;79;21123;-40
2021/03/05 10:35:09;;;;;;;13.75;8.33;;;;;;;5.98;55.27;99074.42;1739796;81;21099;-39
2021/03/05 10:37:38;;;;;;;14.63;7.87;;;;;;;5.89;56.25;99076.98;1758380;81;21103;-39
2021/03/05 10:40:09;;;;;;;14.60;7.80;;;;;;;5.79;56.49;99084.91;1716853;82;21175;-39
2021/03/05 10:42:38;;;;;;;11.68;6.75;;;;;;;5.73;56.56;99085.45;1770000;79;22292;-40
2021/03/05 10:45:07;;;;;;;14.98;7.47;;;;;;;5.73;57.07;99085.45;1764781;81;21186;-39
2021/03/05 10:47:36;;;;;;;12.07;6.78;;;;;;;5.76;56.84;99092.86;1765041;81;21142;-40
2021/03/05 10:50:07;;;;;;;10.00;6.10;;;;;;;5.80;56.82;99092.42;1796072;79;21096;-40
2021/03/05 10:52:36;;;;;;;10.15;6.10;;;;;;;5.82;56.61;99088.81;1774713;79;20976;-40
2021/03/05 10:55:07;;;;;;;11.83;7.20;;;;;;;5.85;56.89;99086.83;1775746;79;21158;-39
2021/03/05 10:57:41;;;;;;;10.43;6.45;;;;;;;5.94;57.22;99086.19;1764810;81;21170;-39
2021/03/05 11:00:12;;;;;;;11.73;7.42;;;;;;;6.00;57.03;99082.16;1766684;80;21146;-40
2021/03/05 11:02:40;;;;;;;;;;;;;;;6.02;57.27;99079.35;1787077;79;21188;-39
2021/03/05 11:05:10;;;;;;;12.55;7.30;;;;;;;6.05;57.34;99088.67;1809175;77;20512;-39
2021/03/05 11:07:38;;;;;;;13.28;7.70;;;;;;;5.97;57.75;99081.47;1793408;79;21364;-39
2021/03/05 11:10:08;;;;;;;12.13;7.42;;;;;;;5.99;57.93;99085.41;1801454;77;21154;-39
2021/03/05 11:12:36;;;;;;;11.90;7.72;;;;;;;5.98;57.71;99083.05;1792829;78;21174;-39
2021/03/05 11:15:06;;;;;;;14.00;8.28;;;;;;;5.97;58.38;99087.64;1813924;78;21114;-39
2021/03/05 11:17:34;;;;;;;12.25;6.90;;;;;;;5.97;58.33;99086.85;1798110;79;21174;-39
2021/03/05 11:20:05;;;;;;;12.23;7.47;;;;;;;6.02;58.55;99089.33;1802995;79;22108;-39
2021/03/05 11:22:34;;;;;;;12.10;7.30;;;;;;;6.12;58.55;99090.23;1789453;79;21118;-39
2021/03/05 11:25:04;;;;;;;12.30;7.58;;;;;;;6.21;58.07;99097.62;1784962;79;21142;-39
2021/03/05 11:27:34;;;;;;;13.15;7.37;;;;;;;6.24;57.58;99086.20;1803111;79;21165;-39
2021/03/05 11:30:06;;;;;;;12.65;7.50;;;;;;;6.20;57.77;99084.50;1782211;80;25395;-39
2021/03/05 11:32:35;;;;;;;9.98;6.30;;;;;;;6.15;57.45;99087.44;1781925;80;21189;-39
2021/03/05 11:35:07;;;;;;;8.08;5.35;;;;;;;6.07;56.72;99083.72;1781991;80;21170;-39
2021/03/05 11:37:35;;;;;;;5.83;4.17;;;;;;;5.99;56.02;99088.10;1782634;79;21581;-39
2021/03/05 11:40:07;;;;;;;3.93;2.80;;;;;;;6.01;55.91;99095.82;1782034;80;21151;-39
2021/03/05 11:42:35;;;;;;;5.53;3.85;;;;;;;6.06;54.44;99092.91;1793347;79;21130;-39
2021/03/05 11:45:05;;;;;;;4.95;3.67;;;;;;;6.14;53.58;99093.94;1806813;79;21450;-39
2021/03/05 11:47:34;;;;;;;;;;;;;;;6.24;53.63;99094.28;1803923;79;21172;-39
2021/03/05 11:50:06;;;;;;;6.75;4.65;;;;;;;6.49;53.62;99089.64;1814137;79;20574;-39
2021/03/05 11:52:34;;;;;;;5.70;4.05;;;;;;;6.73;54.18;99094.98;1814129;78;21138;-39
2021/03/05 11:55:03;;;;;;;10.70;6.05;;;;;;;7.09;53.21;99091.42;1811885;79;21166;-39